sensor_id;sensor_type;location;lat;lon;timestamp;P1;durP1;ratioP1;P2;durP2;ratioP2
18104;SDS011;9179;50.968;3.134;2023-09-19T00:01:43;6.35;;;2.83;;
18104;SDS011;9179;50.968;3.134;2023-09-19T00:04:12;4.90;;;2.35;;
18104;SDS011;9179;50.968;3.134;2023-09-19T00:06:39;7.25;;;2.55;;
18104;SDS011;9179;50.968;3.134;2023-09-19T00:09:07;6.50;;;2.38;;
18104;SDS011;9179;50.968;3.134;2023-09-19T00:11:35;4.88;;;2.78;;
18104;SDS011;9179;50.968;3.134;2023-09-19T00:14:03;5.05;;;2.25;;
18104;SDS011;9179;50.968;3.134;2023-09-19T00:16:30;5.10;;;2.30;;
18104;SDS011;9179;50.968;3.134;2023-09-19T00:18:57;5.57;;;2.97;;
18104;SDS011;9179;50.968;3.134;2023-09-19T00:21:29;6.03;;;2.50;;
18104;SDS011;9179;50.968;3.134;2023-09-19T00:23:57;7.47;;;2.17;;
18104;SDS011;9179;50.968;3.134;2023-09-19T00:26:25;4.65;;;1.80;;
18104;SDS011;9179;50.968;3.134;2023-09-19T00:28:55;9.57;;;2.20;;
18104;SDS011;9179;50.968;3.134;2023-09-19T00:31:33;7.20;;;6.28;;
18104;SDS011;9179;50.968;3.134;2023-09-19T00:34:02;24.23;;;20.38;;
18104;SDS011;9179;50.968;3.134;2023-09-19T00:36:32;18.73;;;15.98;;
18104;SDS011;9179;50.968;3.134;2023-09-19T00:38:59;14.35;;;12.82;;
18104;SDS011;9179;50.968;3.134;2023-09-19T00:41:27;13.13;;;11.40;;
18104;SDS011;9179;50.968;3.134;2023-09-19T00:43:55;11.40;;;10.20;;
18104;SDS011;9179;50.968;3.134;2023-09-19T00:46:23;8.70;;;7.40;;
18104;SDS011;9179;50.968;3.134;2023-09-19T00:48:50;9.23;;;6.25;;
18104;SDS011;9179;50.968;3.134;2023-09-19T00:51:17;11.23;;;5.68;;
18104;SDS011;9179;50.968;3.134;2023-09-19T00:53:49;7.88;;;5.70;;
18104;SDS011;9179;50.968;3.134;2023-09-19T00:56:16;9.90;;;5.70;;
18104;SDS011;9179;50.968;3.134;2023-09-19T00:58:43;10.02;;;4.22;;
18104;SDS011;9179;50.968;3.134;2023-09-19T01:01:11;4.10;;;3.60;;
18104;SDS011;9179;50.968;3.134;2023-09-19T01:03:40;8.40;;;3.47;;
18104;SDS011;9179;50.968;3.134;2023-09-19T01:06:07;3.78;;;2.83;;
18104;SDS011;9179;50.968;3.134;2023-09-19T01:08:34;7.22;;;3.35;;
18104;SDS011;9179;50.968;3.134;2023-09-19T01:11:06;8.30;;;2.80;;
18104;SDS011;9179;50.968;3.134;2023-09-19T01:13:48;7.03;;;3.13;;
18104;SDS011;9179;50.968;3.134;2023-09-19T01:16:27;11.52;;;2.90;;
18104;SDS011;9179;50.968;3.134;2023-09-19T01:19:01;6.35;;;2.75;;
18104;SDS011;9179;50.968;3.134;2023-09-19T01:21:48;10.85;;;2.80;;
18104;SDS011;9179;50.968;3.134;2023-09-19T01:27:37;6.53;;;2.50;;
18104;SDS011;9179;50.968;3.134;2023-09-19T01:30:35;8.57;;;3.38;;
18104;SDS011;9179;50.968;3.134;2023-09-19T01:33:08;6.63;;;2.63;;
18104;SDS011;9179;50.968;3.134;2023-09-19T01:35:37;7.05;;;3.10;;
18104;SDS011;9179;50.968;3.134;2023-09-19T01:38:05;7.78;;;2.25;;
18104;SDS011;9179;50.968;3.134;2023-09-19T01:40:36;6.35;;;2.92;;
18104;SDS011;9179;50.968;3.134;2023-09-19T01:43:09;4.22;;;3.08;;
18104;SDS011;9179;50.968;3.134;2023-09-19T01:45:46;7.85;;;2.90;;
18104;SDS011;9179;50.968;3.134;2023-09-19T01:48:19;7.13;;;2.97;;
18104;SDS011;9179;50.968;3.134;2023-09-19T01:50:55;8.85;;;3.05;;
18104;SDS011;9179;50.968;3.134;2023-09-19T01:53:26;8.63;;;3.55;;
18104;SDS011;9179;50.968;3.134;2023-09-19T01:55:56;8.75;;;2.75;;
18104;SDS011;9179;50.968;3.134;2023-09-19T01:58:27;9.90;;;3.85;;
18104;SDS011;9179;50.968;3.134;2023-09-19T02:01:02;6.13;;;2.83;;
18104;SDS011;9179;50.968;3.134;2023-09-19T02:03:31;8.98;;;3.55;;
18104;SDS011;9179;50.968;3.134;2023-09-19T02:06:01;4.43;;;2.58;;
18104;SDS011;9179;50.968;3.134;2023-09-19T02:08:30;9.15;;;2.85;;
18104;SDS011;9179;50.968;3.134;2023-09-19T02:10:58;7.60;;;2.42;;
18104;SDS011;9179;50.968;3.134;2023-09-19T02:13:25;8.75;;;2.83;;
18104;SDS011;9179;50.968;3.134;2023-09-19T02:15:53;9.13;;;3.13;;
18104;SDS011;9179;50.968;3.134;2023-09-19T02:18:22;6.47;;;2.90;;
18104;SDS011;9179;50.968;3.134;2023-09-19T02:20:49;7.03;;;3.50;;
18104;SDS011;9179;50.968;3.134;2023-09-19T02:23:18;5.82;;;2.50;;
18104;SDS011;9179;50.968;3.134;2023-09-19T02:25:51;7.32;;;2.40;;
18104;SDS011;9179;50.968;3.134;2023-09-19T02:28:18;6.63;;;2.47;;
18104;SDS011;9179;50.968;3.134;2023-09-19T02:30:47;6.53;;;2.58;;
18104;SDS011;9179;50.968;3.134;2023-09-19T02:33:15;4.78;;;2.30;;
18104;SDS011;9179;50.968;3.134;2023-09-19T02:35:44;3.08;;;2.13;;
18104;SDS011;9179;50.968;3.134;2023-09-19T02:38:12;5.68;;;2.80;;
18104;SDS011;9179;50.968;3.134;2023-09-19T02:40:39;5.90;;;2.53;;
18104;SDS011;9179;50.968;3.134;2023-09-19T02:43:08;8.65;;;2.47;;
18104;SDS011;9179;50.968;3.134;2023-09-19T02:45:35;5.15;;;3.33;;
18104;SDS011;9179;50.968;3.134;2023-09-19T02:48:02;6.45;;;2.20;;
18104;SDS011;9179;50.968;3.134;2023-09-19T02:50:30;10.30;;;3.00;;
18104;SDS011;9179;50.968;3.134;2023-09-19T02:52:58;5.07;;;2.70;;
18104;SDS011;9179;50.968;3.134;2023-09-19T02:55:25;4.40;;;2.47;;
18104;SDS011;9179;50.968;3.134;2023-09-19T02:57:53;9.23;;;2.63;;
18104;SDS011;9179;50.968;3.134;2023-09-19T03:00:21;4.85;;;2.25;;
18104;SDS011;9179;50.968;3.134;2023-09-19T03:02:48;9.40;;;2.40;;
18104;SDS011;9179;50.968;3.134;2023-09-19T03:05:15;5.57;;;2.38;;
18104;SDS011;9179;50.968;3.134;2023-09-19T03:07:43;7.13;;;2.90;;
18104;SDS011;9179;50.968;3.134;2023-09-19T03:10:12;6.88;;;2.95;;
18104;SDS011;9179;50.968;3.134;2023-09-19T03:12:40;4.70;;;2.58;;
18104;SDS011;9179;50.968;3.134;2023-09-19T03:15:07;8.25;;;3.35;;
18104;SDS011;9179;50.968;3.134;2023-09-19T03:17:34;8.80;;;3.15;;
18104;SDS011;9179;50.968;3.134;2023-09-19T03:20:02;4.70;;;2.60;;
18104;SDS011;9179;50.968;3.134;2023-09-19T03:22:33;9.15;;;3.60;;
18104;SDS011;9179;50.968;3.134;2023-09-19T03:25:00;7.82;;;4.22;;
18104;SDS011;9179;50.968;3.134;2023-09-19T03:27:30;4.85;;;2.72;;
18104;SDS011;9179;50.968;3.134;2023-09-19T03:29:57;7.80;;;3.00;;
18104;SDS011;9179;50.968;3.134;2023-09-19T03:32:24;9.95;;;2.78;;
18104;SDS011;9179;50.968;3.134;2023-09-19T03:34:51;9.40;;;4.15;;
18104;SDS011;9179;50.968;3.134;2023-09-19T03:37:18;7.20;;;3.20;;
18104;SDS011;9179;50.968;3.134;2023-09-19T03:39:45;8.75;;;3.55;;
18104;SDS011;9179;50.968;3.134;2023-09-19T03:42:12;6.57;;;2.92;;
18104;SDS011;9179;50.968;3.134;2023-09-19T03:44:40;7.90;;;3.13;;
18104;SDS011;9179;50.968;3.134;2023-09-19T03:47:07;7.13;;;2.80;;
18104;SDS011;9179;50.968;3.134;2023-09-19T03:49:34;3.97;;;3.03;;
18104;SDS011;9179;50.968;3.134;2023-09-19T03:52:02;8.52;;;2.03;;
18104;SDS011;9179;50.968;3.134;2023-09-19T03:54:30;6.55;;;2.35;;
18104;SDS011;9179;50.968;3.134;2023-09-19T03:56:56;8.98;;;2.97;;
18104;SDS011;9179;50.968;3.134;2023-09-19T03:59:23;6.63;;;3.17;;
18104;SDS011;9179;50.968;3.134;2023-09-19T04:01:52;9.10;;;2.88;;
18104;SDS011;9179;50.968;3.134;2023-09-19T04:04:22;10.07;;;3.22;;
18104;SDS011;9179;50.968;3.134;2023-09-19T04:06:50;9.10;;;4.32;;
18104;SDS011;9179;50.968;3.134;2023-09-19T04:09:17;6.35;;;2.65;;
18104;SDS011;9179;50.968;3.134;2023-09-19T04:11:44;5.45;;;2.47;;
18104;SDS011;9179;50.968;3.134;2023-09-19T04:14:10;6.13;;;3.03;;
18104;SDS011;9179;50.968;3.134;2023-09-19T04:16:37;7.60;;;2.63;;
18104;SDS011;9179;50.968;3.134;2023-09-19T04:19:06;7.45;;;3.20;;
18104;SDS011;9179;50.968;3.134;2023-09-19T04:21:33;8.23;;;4.07;;
18104;SDS011;9179;50.968;3.134;2023-09-19T04:24:00;8.70;;;3.10;;
18104;SDS011;9179;50.968;3.134;2023-09-19T04:26:27;5.75;;;2.40;;
18104;SDS011;9179;50.968;3.134;2023-09-19T04:28:54;8.05;;;2.58;;
18104;SDS011;9179;50.968;3.134;2023-09-19T04:31:21;8.25;;;2.97;;
18104;SDS011;9179;50.968;3.134;2023-09-19T04:33:48;7.60;;;2.60;;
18104;SDS011;9179;50.968;3.134;2023-09-19T04:36:16;7.07;;;2.45;;
18104;SDS011;9179;50.968;3.134;2023-09-19T04:38:43;9.32;;;2.80;;
18104;SDS011;9179;50.968;3.134;2023-09-19T04:41:10;7.18;;;2.75;;
18104;SDS011;9179;50.968;3.134;2023-09-19T04:43:37;7.95;;;3.30;;
18104;SDS011;9179;50.968;3.134;2023-09-19T04:46:04;6.85;;;3.28;;
18104;SDS011;9179;50.968;3.134;2023-09-19T04:48:32;9.10;;;3.97;;
18104;SDS011;9179;50.968;3.134;2023-09-19T04:51:00;9.40;;;3.10;;
18104;SDS011;9179;50.968;3.134;2023-09-19T04:53:29;7.35;;;3.53;;
18104;SDS011;9179;50.968;3.134;2023-09-19T04:55:56;10.98;;;2.47;;
18104;SDS011;9179;50.968;3.134;2023-09-19T04:58:23;10.80;;;3.38;;
18104;SDS011;9179;50.968;3.134;2023-09-19T05:00:50;5.20;;;2.38;;
18104;SDS011;9179;50.968;3.134;2023-09-19T05:03:17;7.35;;;2.88;;
18104;SDS011;9179;50.968;3.134;2023-09-19T05:05:46;10.68;;;3.90;;
18104;SDS011;9179;50.968;3.134;2023-09-19T05:08:13;8.43;;;2.60;;
18104;SDS011;9179;50.968;3.134;2023-09-19T05:10:41;10.50;;;3.42;;
18104;SDS011;9179;50.968;3.134;2023-09-19T05:13:08;8.05;;;2.97;;
18104;SDS011;9179;50.968;3.134;2023-09-19T05:15:37;5.80;;;3.15;;
18104;SDS011;9179;50.968;3.134;2023-09-19T05:18:04;6.60;;;3.13;;
18104;SDS011;9179;50.968;3.134;2023-09-19T05:20:31;7.72;;;2.70;;
18104;SDS011;9179;50.968;3.134;2023-09-19T05:22:58;6.22;;;2.63;;
18104;SDS011;9179;50.968;3.134;2023-09-19T05:25:27;6.78;;;2.80;;
18104;SDS011;9179;50.968;3.134;2023-09-19T05:27:56;7.50;;;2.67;;
18104;SDS011;9179;50.968;3.134;2023-09-19T05:30:24;9.57;;;2.97;;
18104;SDS011;9179;50.968;3.134;2023-09-19T05:32:52;4.30;;;2.65;;
18104;SDS011;9179;50.968;3.134;2023-09-19T05:35:19;6.88;;;2.58;;
18104;SDS011;9179;50.968;3.134;2023-09-19T05:37:47;4.70;;;2.53;;
18104;SDS011;9179;50.968;3.134;2023-09-19T05:40:16;7.70;;;3.42;;
18104;SDS011;9179;50.968;3.134;2023-09-19T05:42:43;9.60;;;2.90;;
18104;SDS011;9179;50.968;3.134;2023-09-19T05:45:11;5.40;;;2.50;;
18104;SDS011;9179;50.968;3.134;2023-09-19T05:47:38;9.43;;;3.88;;
18104;SDS011;9179;50.968;3.134;2023-09-19T05:50:09;6.25;;;2.80;;
18104;SDS011;9179;50.968;3.134;2023-09-19T05:52:36;3.25;;;2.47;;
18104;SDS011;9179;50.968;3.134;2023-09-19T05:55:04;3.33;;;2.15;;
18104;SDS011;9179;50.968;3.134;2023-09-19T05:57:32;5.90;;;3.10;;
18104;SDS011;9179;50.968;3.134;2023-09-19T05:59:59;7.65;;;2.35;;
18104;SDS011;9179;50.968;3.134;2023-09-19T06:02:28;5.45;;;2.75;;
18104;SDS011;9179;50.968;3.134;2023-09-19T06:04:55;5.75;;;2.58;;
18104;SDS011;9179;50.968;3.134;2023-09-19T06:07:22;9.70;;;2.90;;
18104;SDS011;9179;50.968;3.134;2023-09-19T06:09:51;5.03;;;2.85;;
18104;SDS011;9179;50.968;3.134;2023-09-19T06:12:18;6.05;;;2.80;;
18104;SDS011;9179;50.968;3.134;2023-09-19T06:14:45;7.18;;;3.92;;
18104;SDS011;9179;50.968;3.134;2023-09-19T06:17:13;5.28;;;2.58;;
18104;SDS011;9179;50.968;3.134;2023-09-19T06:19:41;5.68;;;2.30;;
18104;SDS011;9179;50.968;3.134;2023-09-19T06:22:14;10.13;;;3.20;;
18104;SDS011;9179;50.968;3.134;2023-09-19T06:24:43;9.60;;;2.65;;
18104;SDS011;9179;50.968;3.134;2023-09-19T06:27:10;8.50;;;2.50;;
18104;SDS011;9179;50.968;3.134;2023-09-19T06:29:36;4.80;;;3.00;;
18104;SDS011;9179;50.968;3.134;2023-09-19T06:32:06;8.25;;;4.03;;
18104;SDS011;9179;50.968;3.134;2023-09-19T06:34:35;6.85;;;3.40;;
18104;SDS011;9179;50.968;3.134;2023-09-19T06:37:04;5.43;;;2.40;;
18104;SDS011;9179;50.968;3.134;2023-09-19T06:39:31;6.43;;;3.17;;
18104;SDS011;9179;50.968;3.134;2023-09-19T06:41:58;7.18;;;3.28;;
18104;SDS011;9179;50.968;3.134;2023-09-19T06:44:26;5.68;;;2.60;;
18104;SDS011;9179;50.968;3.134;2023-09-19T06:46:54;8.02;;;2.28;;
18104;SDS011;9179;50.968;3.134;2023-09-19T06:49:21;5.57;;;2.53;;
18104;SDS011;9179;50.968;3.134;2023-09-19T06:51:48;6.60;;;2.60;;
18104;SDS011;9179;50.968;3.134;2023-09-19T06:54:17;9.40;;;3.22;;
18104;SDS011;9179;50.968;3.134;2023-09-19T06:56:43;8.63;;;3.50;;
18104;SDS011;9179;50.968;3.134;2023-09-19T06:59:10;8.07;;;2.38;;
18104;SDS011;9179;50.968;3.134;2023-09-19T07:01:39;12.20;;;2.80;;
18104;SDS011;9179;50.968;3.134;2023-09-19T07:04:06;6.38;;;2.88;;
18104;SDS011;9179;50.968;3.134;2023-09-19T07:06:33;6.20;;;3.28;;
18104;SDS011;9179;50.968;3.134;2023-09-19T07:09:00;5.15;;;2.58;;
18104;SDS011;9179;50.968;3.134;2023-09-19T07:11:29;5.30;;;2.75;;
18104;SDS011;9179;50.968;3.134;2023-09-19T07:13:57;7.15;;;3.08;;
18104;SDS011;9179;50.968;3.134;2023-09-19T07:16:24;8.27;;;2.20;;
18104;SDS011;9179;50.968;3.134;2023-09-19T07:18:54;5.20;;;2.47;;
18104;SDS011;9179;50.968;3.134;2023-09-19T07:21:21;4.28;;;2.33;;
18104;SDS011;9179;50.968;3.134;2023-09-19T07:23:48;5.55;;;2.45;;
18104;SDS011;9179;50.968;3.134;2023-09-19T07:26:15;5.55;;;2.83;;
18104;SDS011;9179;50.968;3.134;2023-09-19T07:28:44;5.50;;;2.63;;
18104;SDS011;9179;50.968;3.134;2023-09-19T07:31:10;4.25;;;2.45;;
18104;SDS011;9179;50.968;3.134;2023-09-19T07:33:39;7.28;;;2.83;;
18104;SDS011;9179;50.968;3.134;2023-09-19T07:36:09;5.63;;;2.20;;
18104;SDS011;9179;50.968;3.134;2023-09-19T07:38:38;9.25;;;2.33;;
18104;SDS011;9179;50.968;3.134;2023-09-19T07:41:05;5.57;;;2.25;;
18104;SDS011;9179;50.968;3.134;2023-09-19T07:43:34;3.58;;;2.45;;
18104;SDS011;9179;50.968;3.134;2023-09-19T07:46:04;5.90;;;3.17;;
18104;SDS011;9179;50.968;3.134;2023-09-19T07:48:32;3.80;;;2.42;;
18104;SDS011;9179;50.968;3.134;2023-09-19T07:51:03;7.63;;;3.08;;
18104;SDS011;9179;50.968;3.134;2023-09-19T07:53:31;4.95;;;2.42;;
18104;SDS011;9179;50.968;3.134;2023-09-19T07:56:03;4.85;;;2.42;;
18104;SDS011;9179;50.968;3.134;2023-09-19T07:58:31;5.45;;;2.53;;
18104;SDS011;9179;50.968;3.134;2023-09-19T08:01:02;8.48;;;2.60;;
18104;SDS011;9179;50.968;3.134;2023-09-19T08:03:31;7.35;;;2.83;;
18104;SDS011;9179;50.968;3.134;2023-09-19T08:05:58;7.40;;;2.92;;
18104;SDS011;9179;50.968;3.134;2023-09-19T08:08:25;5.30;;;2.40;;
18104;SDS011;9179;50.968;3.134;2023-09-19T08:10:53;6.45;;;2.38;;
18104;SDS011;9179;50.968;3.134;2023-09-19T08:13:21;4.70;;;2.53;;
18104;SDS011;9179;50.968;3.134;2023-09-19T08:15:48;3.85;;;2.00;;
18104;SDS011;9179;50.968;3.134;2023-09-19T08:18:17;9.15;;;2.47;;
18104;SDS011;9179;50.968;3.134;2023-09-19T08:20:48;7.72;;;2.78;;
18104;SDS011;9179;50.968;3.134;2023-09-19T08:23:16;7.93;;;2.33;;
18104;SDS011;9179;50.968;3.134;2023-09-19T08:25:46;7.32;;;2.50;;
18104;SDS011;9179;50.968;3.134;2023-09-19T08:28:13;7.57;;;2.05;;
18104;SDS011;9179;50.968;3.134;2023-09-19T08:30:45;6.07;;;2.58;;
18104;SDS011;9179;50.968;3.134;2023-09-19T08:33:12;3.42;;;2.05;;
18104;SDS011;9179;50.968;3.134;2023-09-19T08:35:41;6.53;;;2.40;;
18104;SDS011;9179;50.968;3.134;2023-09-19T08:38:08;4.38;;;2.60;;
18104;SDS011;9179;50.968;3.134;2023-09-19T08:40:36;9.93;;;2.60;;
18104;SDS011;9179;50.968;3.134;2023-09-19T08:43:04;4.63;;;2.17;;
18104;SDS011;9179;50.968;3.134;2023-09-19T08:45:32;7.60;;;2.45;;
18104;SDS011;9179;50.968;3.134;2023-09-19T08:48:00;3.08;;;2.00;;
18104;SDS011;9179;50.968;3.134;2023-09-19T08:50:39;6.03;;;2.20;;
18104;SDS011;9179;50.968;3.134;2023-09-19T08:53:15;5.70;;;2.00;;
18104;SDS011;9179;50.968;3.134;2023-09-19T08:55:48;5.03;;;2.33;;
18104;SDS011;9179;50.968;3.134;2023-09-19T08:58:19;4.13;;;1.70;;
18104;SDS011;9179;50.968;3.134;2023-09-19T09:00:48;4.70;;;1.75;;
18104;SDS011;9179;50.968;3.134;2023-09-19T09:03:16;3.60;;;2.00;;
18104;SDS011;9179;50.968;3.134;2023-09-19T09:05:47;6.50;;;2.78;;
18104;SDS011;9179;50.968;3.134;2023-09-19T09:08:16;5.20;;;1.90;;
18104;SDS011;9179;50.968;3.134;2023-09-19T09:10:45;3.35;;;1.77;;
18104;SDS011;9179;50.968;3.134;2023-09-19T09:13:12;2.30;;;1.63;;
18104;SDS011;9179;50.968;3.134;2023-09-19T09:15:40;6.13;;;2.50;;
18104;SDS011;9179;50.968;3.134;2023-09-19T09:18:09;5.72;;;2.00;;
18104;SDS011;9179;50.968;3.134;2023-09-19T09:20:36;5.25;;;1.75;;
18104;SDS011;9179;50.968;3.134;2023-09-19T09:23:05;2.10;;;1.48;;
18104;SDS011;9179;50.968;3.134;2023-09-19T09:25:47;2.70;;;1.42;;
18104;SDS011;9179;50.968;3.134;2023-09-19T09:28:21;3.20;;;1.75;;
18104;SDS011;9179;50.968;3.134;2023-09-19T09:30:50;4.32;;;1.65;;
18104;SDS011;9179;50.968;3.134;2023-09-19T09:33:17;2.95;;;1.63;;
18104;SDS011;9179;50.968;3.134;2023-09-19T09:35:47;3.97;;;2.00;;
18104;SDS011;9179;50.968;3.134;2023-09-19T09:38:18;2.33;;;1.60;;
18104;SDS011;9179;50.968;3.134;2023-09-19T09:40:46;7.35;;;1.70;;
18104;SDS011;9179;50.968;3.134;2023-09-19T09:43:27;2.08;;;1.20;;
18104;SDS011;9179;50.968;3.134;2023-09-19T09:46:09;3.58;;;1.98;;
18104;SDS011;9179;50.968;3.134;2023-09-19T09:49:10;7.70;;;2.22;;
18104;SDS011;9179;50.968;3.134;2023-09-19T09:51:50;3.45;;;1.52;;
18104;SDS011;9179;50.968;3.134;2023-09-19T09:54:27;1.67;;;1.20;;
18104;SDS011;9179;50.968;3.134;2023-09-19T09:57:02;3.10;;;1.80;;
18104;SDS011;9179;50.968;3.134;2023-09-19T09:59:45;1.65;;;1.33;;
18104;SDS011;9179;50.968;3.134;2023-09-19T10:02:14;2.10;;;1.38;;
18104;SDS011;9179;50.968;3.134;2023-09-19T10:04:47;3.72;;;1.40;;
18104;SDS011;9179;50.968;3.134;2023-09-19T10:07:33;3.65;;;1.80;;
18104;SDS011;9179;50.968;3.134;2023-09-19T10:10:05;2.78;;;1.40;;
18104;SDS011;9179;50.968;3.134;2023-09-19T10:12:42;4.47;;;1.58;;
18104;SDS011;9179;50.968;3.134;2023-09-19T10:15:13;2.08;;;1.20;;
18104;SDS011;9179;50.968;3.134;2023-09-19T10:17:42;1.33;;;1.10;;
18104;SDS011;9179;50.968;3.134;2023-09-19T10:20:14;3.17;;;1.50;;
18104;SDS011;9179;50.968;3.134;2023-09-19T10:22:52;2.05;;;1.23;;
18104;SDS011;9179;50.968;3.134;2023-09-19T10:25:25;2.53;;;1.27;;
18104;SDS011;9179;50.968;3.134;2023-09-19T10:27:55;1.75;;;1.40;;
18104;SDS011;9179;50.968;3.134;2023-09-19T10:30:26;2.58;;;1.60;;
18104;SDS011;9179;50.968;3.134;2023-09-19T10:32:57;1.98;;;1.10;;
18104;SDS011;9179;50.968;3.134;2023-09-19T10:35:27;3.00;;;1.25;;
18104;SDS011;9179;50.968;3.134;2023-09-19T10:37:57;4.70;;;1.40;;
18104;SDS011;9179;50.968;3.134;2023-09-19T10:40:29;2.65;;;1.38;;
18104;SDS011;9179;50.968;3.134;2023-09-19T10:43:00;2.03;;;1.23;;
18104;SDS011;9179;50.968;3.134;2023-09-19T10:45:32;2.75;;;1.50;;
18104;SDS011;9179;50.968;3.134;2023-09-19T10:48:00;1.90;;;1.20;;
18104;SDS011;9179;50.968;3.134;2023-09-19T10:50:30;2.90;;;1.38;;
18104;SDS011;9179;50.968;3.134;2023-09-19T10:53:00;2.15;;;1.27;;
18104;SDS011;9179;50.968;3.134;2023-09-19T10:55:33;2.10;;;1.00;;
18104;SDS011;9179;50.968;3.134;2023-09-19T10:58:01;2.28;;;1.30;;
18104;SDS011;9179;50.968;3.134;2023-09-19T11:00:52;2.47;;;1.02;;
18104;SDS011;9179;50.968;3.134;2023-09-19T11:03:20;1.73;;;1.38;;
18104;SDS011;9179;50.968;3.134;2023-09-19T11:06:05;2.22;;;1.05;;
18104;SDS011;9179;50.968;3.134;2023-09-19T11:08:58;4.47;;;1.33;;
18104;SDS011;9179;50.968;3.134;2023-09-19T11:11:51;2.67;;;1.30;;
18104;SDS011;9179;50.968;3.134;2023-09-19T11:20:20;2.85;;;1.40;;
18104;SDS011;9179;50.968;3.134;2023-09-19T11:23:19;3.60;;;1.95;;
18104;SDS011;9179;50.968;3.134;2023-09-19T11:25:52;2.30;;;1.02;;
18104;SDS011;9179;50.968;3.134;2023-09-19T11:28:36;1.92;;;1.30;;
18104;SDS011;9179;50.968;3.134;2023-09-19T11:34:40;3.38;;;1.27;;
18104;SDS011;9179;50.968;3.134;2023-09-19T11:40:31;5.30;;;1.45;;
18104;SDS011;9179;50.968;3.134;2023-09-19T11:42:58;2.33;;;1.85;;
18104;SDS011;9179;50.968;3.134;2023-09-19T11:48:35;2.97;;;1.60;;
18104;SDS011;9179;50.968;3.134;2023-09-19T11:51:10;4.68;;;1.75;;
18104;SDS011;9179;50.968;3.134;2023-09-19T11:53:53;3.15;;;1.70;;
18104;SDS011;9179;50.968;3.134;2023-09-19T11:56:21;2.28;;;1.45;;
18104;SDS011;9179;50.968;3.134;2023-09-19T11:58:49;2.47;;;1.63;;
18104;SDS011;9179;50.968;3.134;2023-09-19T12:01:22;2.83;;;2.03;;
18104;SDS011;9179;50.968;3.134;2023-09-19T12:03:54;4.90;;;1.83;;
18104;SDS011;9179;50.968;3.134;2023-09-19T12:06:23;4.32;;;2.10;;
18104;SDS011;9179;50.968;3.134;2023-09-19T12:08:51;3.85;;;2.10;;
18104;SDS011;9179;50.968;3.134;2023-09-19T12:11:21;4.65;;;2.50;;
18104;SDS011;9179;50.968;3.134;2023-09-19T12:13:49;4.32;;;2.17;;
18104;SDS011;9179;50.968;3.134;2023-09-19T12:16:18;3.25;;;1.95;;
18104;SDS011;9179;50.968;3.134;2023-09-19T12:18:49;4.53;;;1.90;;
18104;SDS011;9179;50.968;3.134;2023-09-19T12:21:23;2.50;;;2.03;;
18104;SDS011;9179;50.968;3.134;2023-09-19T12:24:04;5.03;;;1.95;;
18104;SDS011;9179;50.968;3.134;2023-09-19T12:26:39;4.03;;;1.98;;
18104;SDS011;9179;50.968;3.134;2023-09-19T12:29:18;3.30;;;2.00;;
18104;SDS011;9179;50.968;3.134;2023-09-19T12:31:49;4.00;;;1.85;;
18104;SDS011;9179;50.968;3.134;2023-09-19T12:34:20;3.70;;;1.83;;
18104;SDS011;9179;50.968;3.134;2023-09-19T12:36:48;3.38;;;1.90;;
18104;SDS011;9179;50.968;3.134;2023-09-19T12:39:24;3.78;;;2.05;;
18104;SDS011;9179;50.968;3.134;2023-09-19T12:41:52;3.22;;;1.75;;
18104;SDS011;9179;50.968;3.134;2023-09-19T12:44:19;5.15;;;1.90;;
18104;SDS011;9179;50.968;3.134;2023-09-19T12:46:49;4.63;;;1.88;;
18104;SDS011;9179;50.968;3.134;2023-09-19T12:49:17;4.97;;;2.72;;
18104;SDS011;9179;50.968;3.134;2023-09-19T12:51:46;2.20;;;1.95;;
18104;SDS011;9179;50.968;3.134;2023-09-19T12:54:13;3.72;;;2.50;;
18104;SDS011;9179;50.968;3.134;2023-09-19T12:56:42;4.05;;;2.20;;
18104;SDS011;9179;50.968;3.134;2023-09-19T12:59:12;5.63;;;2.22;;
18104;SDS011;9179;50.968;3.134;2023-09-19T13:01:40;3.72;;;2.15;;
18104;SDS011;9179;50.968;3.134;2023-09-19T13:04:14;3.03;;;1.73;;
18104;SDS011;9179;50.968;3.134;2023-09-19T13:06:52;8.13;;;2.53;;
18104;SDS011;9179;50.968;3.134;2023-09-19T13:09:20;3.38;;;2.75;;
18104;SDS011;9179;50.968;3.134;2023-09-19T13:11:50;5.57;;;3.08;;
18104;SDS011;9179;50.968;3.134;2023-09-19T13:14:19;2.70;;;1.90;;
18104;SDS011;9179;50.968;3.134;2023-09-19T13:16:54;4.20;;;2.22;;
18104;SDS011;9179;50.968;3.134;2023-09-19T13:19:34;5.45;;;2.17;;
18104;SDS011;9179;50.968;3.134;2023-09-19T13:25:05;8.35;;;2.47;;
18104;SDS011;9179;50.968;3.134;2023-09-19T13:27:33;9.20;;;2.58;;
18104;SDS011;9179;50.968;3.134;2023-09-19T13:30:00;7.15;;;2.15;;
18104;SDS011;9179;50.968;3.134;2023-09-19T13:32:27;4.57;;;1.65;;
18104;SDS011;9179;50.968;3.134;2023-09-19T13:34:53;3.45;;;1.98;;
18104;SDS011;9179;50.968;3.134;2023-09-19T13:37:20;7.13;;;2.83;;
18104;SDS011;9179;50.968;3.134;2023-09-19T13:39:49;4.32;;;2.25;;
18104;SDS011;9179;50.968;3.134;2023-09-19T13:42:16;7.75;;;2.75;;
18104;SDS011;9179;50.968;3.134;2023-09-19T13:44:43;6.82;;;3.13;;
18104;SDS011;9179;50.968;3.134;2023-09-19T13:47:10;3.58;;;2.35;;
18104;SDS011;9179;50.968;3.134;2023-09-19T13:49:38;3.38;;;2.20;;
18104;SDS011;9179;50.968;3.134;2023-09-19T13:52:05;4.45;;;2.22;;
18104;SDS011;9179;50.968;3.134;2023-09-19T13:54:32;3.78;;;2.10;;
18104;SDS011;9179;50.968;3.134;2023-09-19T13:57:01;3.33;;;2.05;;
18104;SDS011;9179;50.968;3.134;2023-09-19T13:59:28;4.72;;;2.50;;
18104;SDS011;9179;50.968;3.134;2023-09-19T14:01:56;4.50;;;2.30;;
18104;SDS011;9179;50.968;3.134;2023-09-19T14:04:23;3.67;;;2.50;;
18104;SDS011;9179;50.968;3.134;2023-09-19T14:06:49;6.28;;;2.33;;
18104;SDS011;9179;50.968;3.134;2023-09-19T14:09:16;6.03;;;2.53;;
18104;SDS011;9179;50.968;3.134;2023-09-19T14:11:44;6.20;;;2.55;;
18104;SDS011;9179;50.968;3.134;2023-09-19T14:14:13;4.35;;;2.40;;
18104;SDS011;9179;50.968;3.134;2023-09-19T14:16:40;3.85;;;2.53;;
18104;SDS011;9179;50.968;3.134;2023-09-19T14:19:07;4.40;;;2.63;;
18104;SDS011;9179;50.968;3.134;2023-09-19T14:21:34;5.57;;;2.10;;
18104;SDS011;9179;50.968;3.134;2023-09-19T14:24:04;4.85;;;2.75;;
18104;SDS011;9179;50.968;3.134;2023-09-19T14:26:34;4.78;;;2.58;;
18104;SDS011;9179;50.968;3.134;2023-09-19T14:29:01;6.25;;;3.05;;
18104;SDS011;9179;50.968;3.134;2023-09-19T14:31:29;5.03;;;2.58;;
18104;SDS011;9179;50.968;3.134;2023-09-19T14:33:57;4.15;;;2.30;;
18104;SDS011;9179;50.968;3.134;2023-09-19T14:36:24;8.27;;;2.70;;
18104;SDS011;9179;50.968;3.134;2023-09-19T14:38:52;6.40;;;2.65;;
18104;SDS011;9179;50.968;3.134;2023-09-19T14:41:20;2.13;;;1.85;;
18104;SDS011;9179;50.968;3.134;2023-09-19T14:43:48;7.10;;;2.85;;
18104;SDS011;9179;50.968;3.134;2023-09-19T14:46:15;6.68;;;2.70;;
18104;SDS011;9179;50.968;3.134;2023-09-19T14:48:45;4.90;;;2.50;;
18104;SDS011;9179;50.968;3.134;2023-09-19T14:51:13;5.03;;;2.55;;
18104;SDS011;9179;50.968;3.134;2023-09-19T14:53:40;5.30;;;2.63;;
18104;SDS011;9179;50.968;3.134;2023-09-19T14:56:08;5.30;;;2.97;;
18104;SDS011;9179;50.968;3.134;2023-09-19T14:58:36;4.20;;;3.10;;
18104;SDS011;9179;50.968;3.134;2023-09-19T15:01:04;6.00;;;2.90;;
18104;SDS011;9179;50.968;3.134;2023-09-19T15:03:32;7.13;;;3.38;;
18104;SDS011;9179;50.968;3.134;2023-09-19T15:06:01;6.55;;;3.08;;
18104;SDS011;9179;50.968;3.134;2023-09-19T15:08:29;5.88;;;3.33;;
18104;SDS011;9179;50.968;3.134;2023-09-19T15:10:57;4.90;;;3.00;;
18104;SDS011;9179;50.968;3.134;2023-09-19T15:13:28;4.47;;;3.25;;
18104;SDS011;9179;50.968;3.134;2023-09-19T15:15:58;5.68;;;3.00;;
18104;SDS011;9179;50.968;3.134;2023-09-19T15:18:26;3.80;;;2.67;;
18104;SDS011;9179;50.968;3.134;2023-09-19T15:20:53;9.75;;;2.80;;
18104;SDS011;9179;50.968;3.134;2023-09-19T15:23:22;8.07;;;2.80;;
18104;SDS011;9179;50.968;3.134;2023-09-19T15:25:49;7.63;;;3.90;;
18104;SDS011;9179;50.968;3.134;2023-09-19T15:28:16;7.35;;;3.38;;
18104;SDS011;9179;50.968;3.134;2023-09-19T15:30:43;5.60;;;3.33;;
18104;SDS011;9179;50.968;3.134;2023-09-19T15:33:10;6.63;;;3.33;;
18104;SDS011;9179;50.968;3.134;2023-09-19T15:35:37;5.65;;;3.25;;
18104;SDS011;9179;50.968;3.134;2023-09-19T15:38:04;5.55;;;3.25;;